createdAt,value
2017-12-13T00:02:04.541Z,16.60
2017-12-13T00:04:32.084Z,16.03
2017-12-13T00:06:59.585Z,16.17
2017-12-13T00:09:27.128Z,16.07
2017-12-13T00:11:54.662Z,15.87
2017-12-13T00:14:22.229Z,15.33
2017-12-13T00:16:49.746Z,14.60
2017-12-13T00:19:17.294Z,14.37
2017-12-13T00:21:44.811Z,15.73
2017-12-13T00:24:12.347Z,14.93
2017-12-13T00:26:39.849Z,14.60
2017-12-13T00:29:07.347Z,14.50
2017-12-13T00:31:34.854Z,14.37
2017-12-13T00:34:02.367Z,13.60
2017-12-13T00:36:29.891Z,14.40
2017-12-13T00:38:57.381Z,13.93
2017-12-13T00:41:24.900Z,13.77
2017-12-13T00:43:52.388Z,13.43
2017-12-13T00:46:19.911Z,13.60
2017-12-13T00:48:47.472Z,13.83
2017-12-13T00:51:14.996Z,12.90
2017-12-13T00:53:42.508Z,12.40
2017-12-13T00:56:10.017Z,12.97
2017-12-13T00:58:37.528Z,12.43
2017-12-13T01:01:05.066Z,13.67
2017-12-13T01:03:32.557Z,13.57
2017-12-13T01:06:00.057Z,14.07
2017-12-13T01:08:27.570Z,13.60
2017-12-13T01:10:55.064Z,12.57
2017-12-13T01:13:22.572Z,13.33
2017-12-13T01:15:50.103Z,12.23
2017-12-13T01:18:17.596Z,12.57
2017-12-13T01:20:45.096Z,12.80
2017-12-13T01:23:12.616Z,13.57
2017-12-13T01:25:40.123Z,13.27
2017-12-13T01:28:07.617Z,14.47
2017-12-13T01:30:35.154Z,14.17
2017-12-13T01:33:02.654Z,14.77
2017-12-13T01:35:30.145Z,15.00
2017-12-13T01:37:57.653Z,13.90
2017-12-13T01:40:25.188Z,15.40
2017-12-13T01:42:52.684Z,14.33
2017-12-13T01:45:20.200Z,14.57
2017-12-13T01:47:47.718Z,14.07
2017-12-13T01:50:15.266Z,14.40
2017-12-13T01:52:42.763Z,12.77
2017-12-13T01:55:10.318Z,13.57
2017-12-13T01:57:37.849Z,12.30
2017-12-13T02:00:05.353Z,13.20
2017-12-13T02:02:32.864Z,13.93
2017-12-13T02:05:00.360Z,14.10
2017-12-13T02:07:27.869Z,15.40
2017-12-13T02:09:55.375Z,13.73
2017-12-13T02:12:22.902Z,14.57
2017-12-13T02:14:50.406Z,14.93
2017-12-13T02:17:17.940Z,15.33
2017-12-13T02:19:45.480Z,16.57
2017-12-13T02:22:12.973Z,15.67
2017-12-13T02:24:40.490Z,15.07
2017-12-13T02:27:07.984Z,15.60
2017-12-13T02:29:35.482Z,16.13
2017-12-13T02:32:02.988Z,15.83
2017-12-13T02:34:30.533Z,17.27
2017-12-13T02:36:58.036Z,16.90
2017-12-13T02:39:25.559Z,16.60
2017-12-13T02:41:53.080Z,17.30
2017-12-13T02:44:20.599Z,18.27
2017-12-13T02:46:48.128Z,17.13
2017-12-13T02:49:15.617Z,17.43
2017-12-13T02:51:43.131Z,16.70
2017-12-13T02:54:10.630Z,16.87
2017-12-13T02:56:38.132Z,16.07
2017-12-13T02:59:05.655Z,14.07
2017-12-13T03:01:33.144Z,13.20
2017-12-13T03:04:00.655Z,14.33
2017-12-13T03:06:28.155Z,12.93
2017-12-13T03:08:55.644Z,12.40
2017-12-13T03:11:23.139Z,13.67
2017-12-13T03:13:50.686Z,13.60
2017-12-13T03:16:18.234Z,13.43
2017-12-13T03:18:45.751Z,13.70
2017-12-13T03:21:13.276Z,13.97
2017-12-13T03:23:40.833Z,13.60
2017-12-13T03:26:08.345Z,13.53
2017-12-13T03:28:35.916Z,13.40
2017-12-13T03:31:03.426Z,13.17
2017-12-13T03:33:30.940Z,13.13
2017-12-13T03:35:58.477Z,13.50
2017-12-13T03:38:25.986Z,13.47
2017-12-13T03:40:53.522Z,13.50
2017-12-13T03:43:21.018Z,13.53
2017-12-13T03:45:48.530Z,13.40
2017-12-13T03:48:16.015Z,12.97
2017-12-13T03:50:43.542Z,12.90
2017-12-13T03:53:11.061Z,12.17
2017-12-13T03:55:38.557Z,11.23
2017-12-13T03:58:06.041Z,11.87
2017-12-13T04:00:34.370Z,10.73
2017-12-13T04:03:01.882Z,12.00
2017-12-13T04:05:29.365Z,10.67
2017-12-13T04:07:56.863Z,10.40
2017-12-13T04:10:24.391Z,9.87
2017-12-13T04:12:51.897Z,10.03
2017-12-13T04:15:19.484Z,8.97
2017-12-13T04:17:46.995Z,10.20
2017-12-13T04:20:14.468Z,8.90
2017-12-13T04:22:41.959Z,8.63
2017-12-13T04:25:09.468Z,8.83
2017-12-13T04:27:36.963Z,7.60
2017-12-13T04:30:04.464Z,8.03
2017-12-13T04:32:31.965Z,7.60
2017-12-13T04:34:59.467Z,7.63
2017-12-13T04:37:26.953Z,7.83
2017-12-13T04:39:54.436Z,7.90
2017-12-13T04:42:21.937Z,7.93
2017-12-13T04:44:49.422Z,7.20
2017-12-13T04:47:16.928Z,7.07
2017-12-13T04:49:44.440Z,7.57
2017-12-13T04:52:11.930Z,7.10
2017-12-13T04:54:39.467Z,7.97
2017-12-13T04:57:06.974Z,7.00
2017-12-13T04:59:34.471Z,7.47
2017-12-13T05:02:02.087Z,6.97
2017-12-13T05:04:29.596Z,6.87
2017-12-13T05:06:57.111Z,6.43
2017-12-13T05:09:24.609Z,6.60
2017-12-13T05:11:52.145Z,6.33
2017-12-13T05:14:19.644Z,5.80
2017-12-13T05:16:47.140Z,5.73
2017-12-13T05:19:14.628Z,5.30
2017-12-13T05:21:42.166Z,6.30
2017-12-13T05:24:09.683Z,7.13
2017-12-13T05:26:37.211Z,5.57
2017-12-13T05:29:04.700Z,5.17
2017-12-13T05:31:32.436Z,5.33
2017-12-13T05:34:00.058Z,5.40
2017-12-13T05:36:27.529Z,5.60
2017-12-13T05:38:55.805Z,5.77
2017-12-13T05:41:23.959Z,5.47
2017-12-13T05:43:51.413Z,5.50
2017-12-13T05:46:18.893Z,6.10
2017-12-13T05:48:46.373Z,5.57
2017-12-13T05:51:13.835Z,6.40
2017-12-13T05:53:41.305Z,5.80
2017-12-13T05:56:08.767Z,6.17
2017-12-13T05:58:36.219Z,6.50
2017-12-13T06:01:03.678Z,5.90
2017-12-13T06:03:31.149Z,5.97
2017-12-13T06:05:58.605Z,6.20
2017-12-13T06:08:26.069Z,6.20
2017-12-13T06:10:53.633Z,6.20
2017-12-13T06:13:21.095Z,6.03
2017-12-13T06:15:48.550Z,6.40
2017-12-13T06:18:16.008Z,6.77
2017-12-13T06:20:43.474Z,6.40
2017-12-13T06:23:10.934Z,5.87
2017-12-13T06:25:38.399Z,6.50
2017-12-13T06:28:05.860Z,6.60
2017-12-13T06:30:33.343Z,6.20
2017-12-13T06:33:00.805Z,7.90
2017-12-13T06:35:28.265Z,6.87
2017-12-13T06:37:55.769Z,6.17
2017-12-13T06:40:23.277Z,6.30
2017-12-13T06:42:50.728Z,5.80
2017-12-13T06:45:18.193Z,5.90
2017-12-13T06:47:45.648Z,6.40
2017-12-13T06:50:13.113Z,5.67
2017-12-13T06:52:40.564Z,6.00
2017-12-13T06:55:08.017Z,6.17
2017-12-13T06:57:35.468Z,5.93
2017-12-13T07:00:03.653Z,5.10
2017-12-13T07:02:31.113Z,5.60
2017-12-13T07:04:58.618Z,5.43
2017-12-13T07:07:26.070Z,5.17
2017-12-13T07:09:53.580Z,5.10
2017-12-13T07:12:21.036Z,5.77
2017-12-13T07:14:48.497Z,5.47
2017-12-13T07:17:15.952Z,5.23
2017-12-13T07:19:43.433Z,5.60
2017-12-13T07:22:10.939Z,5.87
2017-12-13T07:24:38.413Z,5.13
2017-12-13T07:27:05.868Z,4.83
2017-12-13T07:29:33.367Z,4.70
2017-12-13T07:32:00.843Z,5.00
2017-12-13T07:34:28.298Z,5.13
2017-12-13T07:36:55.778Z,5.27
2017-12-13T07:39:23.250Z,5.00
2017-12-13T07:41:50.753Z,4.80
2017-12-13T07:44:18.226Z,4.80
2017-12-13T07:46:45.682Z,5.10
2017-12-13T07:49:13.217Z,4.43
2017-12-13T07:51:40.680Z,5.23
2017-12-13T07:54:08.133Z,5.17
2017-12-13T07:56:35.589Z,5.20
2017-12-13T07:59:03.054Z,4.67
2017-12-13T08:01:30.504Z,4.70
2017-12-13T08:03:57.984Z,4.87
2017-12-13T08:06:25.446Z,5.30
2017-12-13T08:08:52.908Z,4.67
2017-12-13T08:11:20.370Z,4.87
2017-12-13T08:13:47.822Z,4.53
2017-12-13T08:16:15.283Z,5.00
2017-12-13T08:18:42.737Z,4.77
2017-12-13T08:21:10.195Z,4.43
2017-12-13T08:23:37.653Z,4.67
2017-12-13T08:26:05.113Z,5.30
2017-12-13T08:28:32.593Z,4.87
2017-12-13T08:31:00.041Z,4.33
2017-12-13T08:33:27.501Z,4.67
2017-12-13T08:35:55.008Z,4.30
2017-12-13T08:38:22.452Z,3.57
2017-12-13T08:40:49.936Z,4.10
2017-12-13T08:43:17.408Z,3.70
2017-12-13T08:45:44.877Z,3.70
2017-12-13T08:48:12.337Z,3.33
2017-12-13T08:50:39.801Z,3.33
2017-12-13T08:53:07.255Z,3.43
2017-12-13T08:55:34.713Z,3.47
2017-12-13T08:58:02.172Z,3.60
2017-12-13T09:00:29.629Z,4.03
2017-12-13T09:02:57.108Z,3.07
2017-12-13T09:05:24.562Z,3.47
2017-12-13T09:07:52.005Z,3.47
2017-12-13T09:10:19.464Z,3.50
2017-12-13T09:12:46.922Z,3.33
2017-12-13T09:15:14.406Z,3.20
2017-12-13T09:17:41.891Z,2.67
2017-12-13T09:20:09.495Z,3.60
2017-12-13T09:22:36.951Z,2.73
2017-12-13T09:25:04.407Z,2.97
2017-12-13T09:27:31.857Z,3.17
2017-12-13T09:29:59.324Z,3.03
2017-12-13T09:32:26.862Z,3.00
2017-12-13T09:34:54.321Z,3.13
2017-12-13T09:37:21.808Z,2.87
2017-12-13T09:39:49.304Z,3.10
2017-12-13T09:42:16.788Z,2.83
2017-12-13T09:44:44.240Z,3.23
2017-12-13T09:47:11.703Z,2.80
2017-12-13T09:49:39.153Z,3.10
2017-12-13T09:52:06.624Z,2.80
2017-12-13T09:54:34.140Z,2.93
2017-12-13T09:57:01.605Z,2.87
2017-12-13T09:59:29.083Z,2.90
2017-12-13T10:01:56.538Z,3.27
2017-12-13T10:04:24.036Z,3.30
2017-12-13T10:06:51.488Z,3.03
2017-12-13T10:09:18.950Z,3.50
2017-12-13T10:11:46.421Z,3.43
2017-12-13T10:14:13.911Z,3.17
2017-12-13T10:16:41.381Z,3.30
2017-12-13T10:19:08.830Z,2.90
2017-12-13T10:21:36.291Z,3.37
2017-12-13T10:24:03.744Z,3.27
2017-12-13T10:26:31.196Z,3.57
2017-12-13T10:28:58.703Z,3.10
2017-12-13T10:31:26.155Z,3.57
2017-12-13T10:33:53.614Z,3.20
2017-12-13T10:36:21.133Z,3.13
2017-12-13T10:38:48.593Z,3.30
2017-12-13T10:41:16.048Z,3.07
2017-12-13T10:43:43.548Z,3.63
2017-12-13T10:46:11.006Z,3.20
2017-12-13T10:48:38.474Z,2.80
2017-12-13T10:51:05.954Z,3.50
2017-12-13T10:53:33.417Z,3.20
2017-12-13T10:56:00.887Z,3.30
2017-12-13T10:58:28.395Z,3.20
2017-12-13T11:00:55.858Z,3.40
2017-12-13T11:03:23.317Z,2.90
2017-12-13T11:05:50.776Z,3.50
2017-12-13T11:08:18.234Z,3.63
2017-12-13T11:10:45.692Z,3.20
2017-12-13T11:13:13.159Z,3.07
2017-12-13T11:15:40.638Z,3.17
2017-12-13T11:18:08.130Z,3.30
2017-12-13T11:20:35.601Z,2.83
2017-12-13T11:23:03.049Z,3.20
2017-12-13T11:25:30.521Z,3.03
2017-12-13T11:27:58.036Z,3.63
2017-12-13T11:30:25.492Z,3.27
2017-12-13T11:32:53.595Z,2.63
2017-12-13T11:35:21.064Z,3.10
2017-12-13T11:37:48.513Z,3.40
2017-12-13T11:40:15.972Z,3.40
2017-12-13T11:42:43.430Z,3.03
2017-12-13T11:45:10.913Z,3.33
2017-12-13T11:47:38.371Z,2.77
2017-12-13T11:50:05.833Z,2.73
2017-12-13T11:52:33.296Z,3.10
2017-12-13T11:55:00.772Z,3.07
2017-12-13T11:57:28.241Z,3.27
2017-12-13T11:59:55.716Z,2.90
2017-12-13T12:02:23.165Z,2.90
2017-12-13T12:04:51.196Z,2.80
2017-12-13T12:07:18.663Z,2.87
2017-12-13T12:09:46.129Z,2.80
2017-12-13T12:12:13.607Z,2.87
2017-12-13T12:14:41.057Z,2.97
2017-12-13T12:17:08.557Z,3.00
2017-12-13T12:19:35.997Z,3.10
2017-12-13T12:22:03.448Z,2.57
2017-12-13T12:24:31.688Z,2.87
2017-12-13T12:26:59.571Z,3.37
2017-12-13T12:29:27.028Z,2.80
2017-12-13T12:31:54.480Z,2.80
2017-12-13T12:34:21.945Z,2.50
2017-12-13T12:36:49.407Z,2.70
2017-12-13T12:39:16.864Z,2.77
2017-12-13T12:41:44.321Z,3.40
2017-12-13T12:44:11.780Z,2.97
2017-12-13T12:46:39.312Z,3.03
2017-12-13T12:49:06.809Z,2.60
2017-12-13T12:51:34.232Z,2.60
2017-12-13T12:54:01.684Z,2.87
2017-12-13T12:56:30.095Z,2.80
2017-12-13T12:58:57.573Z,2.83
2017-12-13T13:01:25.063Z,3.00
2017-12-13T13:03:52.519Z,3.10
2017-12-13T13:06:19.980Z,2.90
2017-12-13T13:08:47.443Z,2.90
2017-12-13T13:11:14.906Z,2.90
2017-12-13T13:13:42.389Z,2.70
2017-12-13T13:16:09.854Z,2.40
2017-12-13T13:18:37.324Z,2.90
2017-12-13T13:21:05.133Z,2.87
2017-12-13T13:23:32.586Z,2.60
2017-12-13T13:26:00.043Z,3.00
2017-12-13T13:28:27.631Z,2.80
2017-12-13T13:30:55.101Z,2.83
2017-12-13T13:33:23.460Z,3.00
2017-12-13T13:35:50.928Z,2.70
2017-12-13T13:38:18.399Z,2.63
2017-12-13T13:40:45.859Z,2.60
2017-12-13T13:43:13.317Z,2.60
2017-12-13T13:45:40.790Z,2.73
2017-12-13T13:48:08.243Z,2.53
2017-12-13T13:50:35.737Z,2.80
2017-12-13T13:53:03.267Z,2.67
2017-12-13T13:55:30.735Z,2.60
2017-12-13T13:57:58.256Z,2.87
2017-12-13T14:00:25.725Z,2.70
2017-12-13T14:02:53.192Z,2.63
2017-12-13T14:05:20.655Z,2.70
2017-12-13T14:07:48.142Z,2.87
2017-12-13T14:10:15.629Z,2.63
2017-12-13T14:12:43.089Z,2.30
2017-12-13T14:15:10.552Z,2.47
2017-12-13T14:17:38.001Z,2.53
2017-12-13T14:20:05.474Z,2.50
2017-12-13T14:22:32.930Z,2.53
2017-12-13T14:25:00.401Z,2.20
2017-12-13T14:27:27.890Z,2.10
2017-12-13T14:29:55.510Z,1.90
2017-12-13T14:32:22.976Z,2.17
2017-12-13T14:34:50.431Z,2.10
2017-12-13T14:37:17.887Z,2.10
2017-12-13T14:39:45.343Z,2.23
2017-12-13T14:42:12.796Z,2.30
2017-12-13T14:44:40.256Z,2.03
2017-12-13T14:47:07.711Z,2.00
2017-12-13T14:49:35.173Z,2.03
2017-12-13T14:52:02.874Z,1.90
2017-12-13T14:54:30.360Z,2.00
2017-12-13T14:56:57.817Z,1.90
2017-12-13T14:59:25.320Z,2.17
2017-12-13T15:01:53.013Z,1.83
2017-12-13T15:04:20.813Z,2.00
2017-12-13T15:06:48.301Z,1.90
2017-12-13T15:09:15.785Z,2.20
2017-12-13T15:11:43.245Z,1.80
2017-12-13T15:14:10.718Z,2.40
2017-12-13T15:16:38.161Z,2.10
2017-12-13T15:19:05.613Z,1.90
2017-12-13T15:21:33.209Z,2.00
2017-12-13T15:24:00.680Z,1.87
2017-12-13T15:26:28.188Z,1.80
2017-12-13T15:28:55.658Z,1.93
2017-12-13T15:31:23.118Z,2.00
2017-12-13T15:33:50.588Z,1.80
2017-12-13T15:36:18.045Z,2.10
2017-12-13T15:38:45.505Z,1.83
2017-12-13T15:41:12.960Z,1.83
2017-12-13T15:43:40.425Z,1.97
2017-12-13T15:46:07.888Z,1.70
2017-12-13T15:48:35.343Z,1.70
2017-12-13T15:51:02.800Z,1.70
2017-12-13T15:53:30.260Z,1.90
2017-12-13T15:55:57.777Z,2.00
2017-12-13T15:58:25.262Z,1.73
2017-12-13T16:00:52.720Z,1.77
2017-12-13T16:03:20.492Z,1.70
2017-12-13T16:05:48.029Z,1.80
2017-12-13T16:08:15.668Z,1.80
2017-12-13T16:10:43.399Z,1.80
2017-12-13T16:13:10.869Z,1.70
2017-12-13T16:15:38.347Z,1.80
2017-12-13T16:18:05.797Z,1.70
2017-12-13T16:20:33.256Z,1.70
2017-12-13T16:23:00.720Z,2.10
2017-12-13T16:25:28.173Z,1.90
2017-12-13T16:27:55.628Z,1.80
2017-12-13T16:30:23.086Z,1.70
2017-12-13T16:32:50.540Z,1.80
2017-12-13T16:35:18.007Z,1.90
2017-12-13T16:37:45.497Z,1.80
2017-12-13T16:40:12.953Z,2.00
2017-12-13T16:42:40.436Z,1.73
2017-12-13T16:45:07.902Z,1.70
2017-12-13T16:47:35.358Z,1.80
2017-12-13T16:50:02.994Z,2.03
2017-12-13T16:52:30.477Z,1.60
2017-12-13T16:54:57.929Z,1.70
2017-12-13T16:57:25.371Z,1.80
2017-12-13T16:59:52.827Z,1.90
2017-12-13T17:02:20.293Z,2.00
2017-12-13T17:04:47.741Z,1.67
2017-12-13T17:07:15.193Z,1.90
2017-12-13T17:09:42.657Z,1.80
2017-12-13T17:12:10.129Z,1.80
2017-12-13T17:14:37.585Z,1.70
2017-12-13T17:17:05.044Z,1.90
2017-12-13T17:19:32.527Z,1.80
2017-12-13T17:22:00.049Z,1.90
2017-12-13T17:24:27.505Z,1.80
2017-12-13T17:26:54.961Z,1.70
2017-12-13T17:29:22.507Z,1.83
2017-12-13T17:31:49.961Z,1.83
2017-12-13T17:34:17.464Z,1.60
2017-12-13T17:36:44.919Z,1.70
2017-12-13T17:39:12.381Z,1.70
2017-12-13T17:41:39.827Z,1.70
2017-12-13T17:44:07.289Z,1.67
2017-12-13T17:46:34.907Z,1.97
2017-12-13T17:49:02.377Z,1.73
2017-12-13T17:51:29.837Z,1.60
2017-12-13T17:53:57.421Z,1.80
2017-12-13T17:56:24.885Z,1.93
2017-12-13T17:58:52.684Z,1.73
2017-12-13T18:01:20.144Z,1.70
2017-12-13T18:03:47.605Z,1.73
2017-12-13T18:06:15.305Z,1.83
2017-12-13T18:08:42.762Z,1.87
2017-12-13T18:11:10.239Z,1.63
2017-12-13T18:13:37.701Z,1.80
2017-12-13T18:16:05.205Z,1.80
2017-12-13T18:18:32.689Z,1.70
2017-12-13T18:21:00.181Z,1.90
2017-12-13T18:23:27.646Z,1.60
2017-12-13T18:25:55.125Z,2.00
2017-12-13T18:28:22.637Z,1.93
2017-12-13T18:30:50.110Z,2.10
2017-12-13T18:33:17.602Z,1.90
2017-12-13T18:35:45.076Z,1.90
2017-12-13T18:38:12.619Z,1.90
2017-12-13T18:40:40.160Z,1.90
2017-12-13T18:43:07.618Z,2.07
2017-12-13T18:45:35.081Z,2.10
2017-12-13T18:48:02.537Z,2.40
2017-12-13T18:50:30.307Z,2.10
2017-12-13T18:52:57.762Z,2.20
2017-12-13T18:55:25.285Z,1.93
2017-12-13T18:57:52.791Z,2.13
2017-12-13T19:00:36.082Z,2.03
2017-12-13T19:03:03.634Z,2.10
2017-12-13T19:05:31.311Z,2.10
2017-12-13T19:07:58.981Z,1.93
2017-12-13T19:10:26.437Z,2.17
2017-12-13T19:12:53.916Z,2.00
2017-12-13T19:15:21.429Z,2.13
2017-12-13T19:17:48.925Z,2.00
2017-12-13T19:20:16.440Z,1.90
2017-12-13T19:22:43.920Z,1.83
2017-12-13T19:25:11.400Z,1.93
2017-12-13T19:27:38.982Z,2.00
2017-12-13T19:30:06.461Z,1.97
2017-12-13T19:32:33.966Z,2.00
2017-12-13T19:35:01.482Z,1.80
2017-12-13T19:37:29.080Z,2.20
2017-12-13T19:39:56.673Z,1.90
2017-12-13T19:42:24.230Z,2.00
2017-12-13T19:44:51.753Z,1.90
2017-12-13T19:47:19.265Z,1.90
2017-12-13T19:49:46.774Z,2.00
2017-12-13T19:52:14.253Z,2.00
2017-12-13T19:54:41.724Z,2.43
2017-12-13T19:57:09.222Z,1.90
2017-12-13T20:02:40.812Z,2.00
2017-12-13T20:05:08.313Z,1.80
2017-12-13T20:07:35.822Z,1.77
2017-12-13T20:10:03.626Z,2.10
2017-12-13T20:12:33.113Z,1.93
2017-12-13T20:15:12.160Z,2.07
2017-12-13T20:17:39.621Z,1.90
2017-12-13T20:20:07.108Z,2.03
2017-12-13T20:22:34.577Z,1.97
2017-12-13T20:25:02.061Z,1.90
2017-12-13T20:27:29.518Z,1.80
2017-12-13T20:29:57.000Z,1.97
2017-12-13T20:32:24.468Z,1.77
2017-12-13T20:34:51.950Z,1.80
2017-12-13T20:37:19.420Z,1.97
2017-12-13T20:39:46.881Z,1.83
2017-12-13T20:42:14.356Z,1.90
2017-12-13T20:44:41.818Z,1.90
2017-12-13T20:47:09.308Z,2.40
2017-12-13T20:49:36.780Z,2.47
2017-12-13T20:52:04.300Z,2.13
2017-12-13T20:54:31.752Z,1.80
2017-12-13T20:56:59.630Z,1.90
2017-12-13T20:59:27.127Z,1.90
2017-12-13T21:01:54.628Z,2.00
2017-12-13T21:04:22.108Z,2.00
2017-12-13T21:06:49.596Z,1.77
2017-12-13T21:09:17.285Z,2.10
2017-12-13T21:11:44.801Z,1.80
2017-12-13T21:14:12.279Z,1.80
2017-12-13T21:16:39.941Z,2.03
2017-12-13T21:19:07.442Z,1.90
2017-12-13T21:21:35.067Z,2.30
2017-12-13T21:24:02.566Z,2.00
2017-12-13T21:26:30.048Z,1.70
2017-12-13T21:28:57.656Z,1.80
2017-12-13T21:31:25.138Z,1.80
2017-12-13T21:33:52.625Z,1.60
2017-12-13T21:36:20.119Z,1.93
2017-12-13T21:38:47.745Z,1.67
2017-12-13T21:41:15.251Z,1.80
2017-12-13T21:43:42.898Z,1.80
2017-12-13T21:46:10.421Z,1.90
2017-12-13T21:48:37.987Z,1.90
2017-12-13T21:51:05.629Z,1.80
2017-12-13T21:53:43.636Z,1.90
2017-12-13T21:56:11.120Z,1.70
2017-12-13T21:58:38.682Z,1.80
2017-12-13T22:01:06.990Z,2.00
2017-12-13T22:03:34.447Z,1.73
2017-12-13T22:06:04.872Z,1.70
2017-12-13T22:08:32.406Z,1.70
2017-12-13T22:10:59.935Z,1.60
2017-12-13T22:13:27.474Z,1.87
2017-12-13T22:15:55.000Z,1.77
2017-12-13T22:18:22.508Z,1.90
2017-12-13T22:20:49.971Z,1.47
2017-12-13T22:23:17.432Z,1.87
2017-12-13T22:25:44.956Z,1.50
2017-12-13T22:28:12.451Z,1.67
2017-12-13T22:30:39.934Z,1.60
2017-12-13T22:33:07.476Z,1.53
2017-12-13T22:35:34.955Z,1.60
2017-12-13T22:38:02.500Z,1.60
2017-12-13T22:40:29.973Z,1.60
2017-12-13T22:42:57.533Z,1.60
2017-12-13T22:45:25.109Z,1.70
2017-12-13T22:47:52.642Z,1.63
2017-12-13T22:50:20.114Z,1.67
2017-12-13T22:52:47.644Z,1.70
2017-12-13T22:55:15.152Z,1.50
2017-12-13T22:57:42.634Z,1.60
2017-12-13T23:00:10.133Z,1.90
2017-12-13T23:02:37.660Z,1.90
2017-12-13T23:05:05.244Z,1.70
2017-12-13T23:07:32.717Z,1.70
2017-12-13T23:10:00.258Z,1.90
2017-12-13T23:12:27.743Z,1.53
2017-12-13T23:14:55.255Z,1.40
2017-12-13T23:17:23.442Z,1.60
2017-12-13T23:19:51.000Z,1.70
2017-12-13T23:22:18.467Z,1.53
2017-12-13T23:24:46.153Z,1.60
2017-12-13T23:27:13.638Z,1.60
2017-12-13T23:29:41.135Z,1.70
2017-12-13T23:32:08.632Z,1.70
2017-12-13T23:34:36.136Z,1.53
2017-12-13T23:37:03.652Z,1.73
2017-12-13T23:39:31.148Z,1.40
2017-12-13T23:41:58.644Z,1.40
2017-12-13T23:44:26.240Z,1.60
2017-12-13T23:46:53.722Z,1.40
2017-12-13T23:49:21.526Z,1.40
2017-12-13T23:51:49.096Z,1.43
2017-12-13T23:54:16.572Z,1.43
2017-12-13T23:56:44.045Z,1.70
2017-12-13T23:59:11.522Z,1.50
